Latest Weather Observations for Flinders Island Airport

IDT60801

Issued at 5:51 pm EST Saturday 22 September 2018 (issued every 10 minutes, with the page automatically refreshed every 10 minutes)

About weather observations | Map of weather stations | Latest weather observations for TAS | Other Formats
Station Details ID: 099005 Name: FLINDERS ISLAND AIRPORT Lat: -40.09 Lon: 148.00 Height: 9.0 m
Data from the previous 72 hours. | See also: Recent months at Flinders Island Airport
Date/Time
EST
Temp
°C
App
Temp
°C
Dew
Point
°C
Rel
Hum
%
Delta-T
°C
Wind Press
QNH
hPa
Press
MSL
hPa
Rain since
9am
mm
Dir  Spd
km/h
Gust
km/h
Spd
kts
Gust
kts
22/05:30pm 12.4 7.0 9.6 83 1.4 W 28 35 15 19 1022.6 1022.6 0.2
22/05:00pm 12.3 7.6 10.5 89 0.9 W 26 35 14 19 1022.6 1022.6 0.2
22/04:52pm 12.2 6.4 10.8 91 0.7 W 32 37 17 20 1022.6 1022.6 0.2
22/04:38pm 12.1 6.3 10.7 91 0.7 W 32 41 17 22 1022.7 1022.7 0.2
22/04:30pm 12.5 6.8 9.9 84 1.3 WNW 30 37 16 20 1022.6 1022.6 0.2
22/04:00pm 13.1 7.3 9.4 78 1.9 WNW 30 39 16 21 1022.5 1022.5 0.2
22/03:30pm 12.5 5.8 9.5 82 1.5 W 35 44 19 24 1022.7 1022.7 0.2
22/03:00pm 12.8 6.1 9.6 81 1.6 W 35 43 19 23 1022.7 1022.7 0.2
22/02:30pm 13.6 6.8 9.3 75 2.2 W 35 46 19 25 1022.8 1022.8 0.2
22/02:00pm 13.8 6.8 9.8 77 2.0 W 37 46 20 25 1023.0 1023.0 0.2
22/01:30pm 13.7 7.6 9.7 77 2.1 W 32 43 17 23 1023.1 1023.1 0.2
22/01:21pm 12.9 6.9 10.1 83 1.4 WNW 32 41 17 22 1023.3 1023.3 0.2
22/01:09pm 12.5 6.5 10.2 86 1.2 W 32 46 17 25 1023.4 1023.4 0.2
22/01:00pm 13.6 7.5 9.8 78 1.9 W 32 41 17 22 1023.5 1023.5 0.2
22/12:30pm 13.8 7.6 9.3 74 2.3 W 32 39 17 21 1023.7 1023.7 0.2
22/12:00pm 13.6 7.3 9.1 74 2.3 W 32 39 17 21 1024.1 1024.1 0.2
22/11:30am 13.8 7.0 10.6 81 1.7 W 37 46 20 25 1024.2 1024.2 0.0
22/11:00am 14.5 8.3 9.5 72 2.6 W 32 41 17 22 1024.2 1024.2 0.0
22/10:30am 12.7 6.7 10.8 88 1.0 W 33 41 18 22 1024.3 1024.3 0.0
22/10:26am 13.0 7.3 11.9 93 0.6 W 33 41 18 22 1024.3 1024.3 0.0
22/10:06am 11.7 5.2 10.3 91 0.7 W 35 50 19 27 1024.5 1024.5 0.0
22/10:00am 13.0 7.5 10.4 84 1.3 W 30 35 16 19 1024.4 1024.4 0.0
22/09:41am 13.5 7.9 10.1 80 1.8 W 30 43 16 23 1024.4 1024.4 0.0
22/09:30am 12.3 5.2 11.0 92 0.7 W 39 46 21 25 1024.4 1024.4 0.0
22/09:26am 11.8 4.8 11.2 96 0.3 W 39 48 21 26 1024.4 1024.4 0.0
22/09:14am 11.6 5.3 11.1 97 0.3 WNW 35 46 19 25 1024.5 1024.5 0.0
22/09:01am 11.8 6.0 10.7 93 0.6 WNW 32 44 17 24 1024.5 1024.5 0.0
22/09:00am 11.9 6.1 10.8 93 0.6 WNW 32 44 17 24 1024.5 1024.5 0.2
22/08:47am 12.3 6.6 11.2 93 0.6 WNW 32 39 17 21 1024.5 1024.5 0.2
22/08:42am 12.1 6.8 11.2 94 0.5 WNW 30 37 16 20 1024.4 1024.4 0.2
22/08:39am 12.0 6.7 11.2 95 0.4 WNW 30 37 16 20 1024.4 1024.4 0.2
22/08:30am 11.7 5.9 10.9 95 0.4 W 32 43 17 23 1024.4 1024.4 0.2
22/08:28am 11.8 5.8 10.9 94 0.5 W 33 48 18 26 1024.4 1024.4 0.2
22/08:22am 11.9 5.4 10.3 90 0.8 W 35 48 19 26 1024.4 1024.4 0.2
22/08:20am 12.4 5.9 10.5 88 1.0 W 35 48 19 26 1024.4 1024.4 0.2
22/08:00am 13.1 8.4 9.2 77 2.0 WNW 24 30 13 16 1024.1 1024.1 0.2
22/07:30am 12.7 7.0 8.2 74 2.2 W 28 39 15 21 1024.1 1024.1 0.2
22/07:00am 12.3 6.7 8.8 79 1.7 W 28 35 15 19 1024.1 1024.1 0.2
22/06:30am 12.1 6.6 9.1 82 1.5 W 28 37 15 20 1024.0 1024.0 0.2
22/06:00am 12.1 6.6 9.1 82 1.5 W 28 37 15 20 1023.6 1023.6 0.2
22/05:30am 12.1 7.0 9.3 83 1.4 W 26 33 14 18 1023.7 1023.7 0.2
22/05:00am 12.2 7.0 9.0 81 1.6 W 26 39 14 21 1023.6 1023.6 0.2
22/04:30am 11.9 7.1 8.9 82 1.5 W 24 30 13 16 1023.6 1023.6 0.2
22/04:00am 12.1 5.0 8.0 76 2.0 W 35 48 19 26 1023.7 1023.7 0.2
22/03:30am 12.2 5.7 8.1 76 2.0 W 32 41 17 22 1023.6 1023.6 0.2
22/03:00am 12.0 5.4 7.9 76 2.0 W 32 41 17 22 1023.5 1023.5 0.2
22/02:30am 11.9 6.6 8.4 79 1.7 W 26 32 14 17 1023.6 1023.6 0.2
22/02:00am 11.9 5.3 7.6 75 2.1 W 32 39 17 21 1023.8 1023.8 0.2
22/01:30am 11.8 5.3 8.1 78 1.8 W 32 41 17 22 1023.9 1023.9 0.2
22/01:00am 11.9 5.2 8.2 78 1.8 W 33 43 18 23 1024.2 1024.2 0.2
22/12:30am 11.9 5.9 8.7 81 1.6 W 30 37 16 20 1024.4 1024.4 0.2
22/12:00am 11.7 6.0 8.2 79 1.7 W 28 37 15 20 1024.4 1024.4 0.2
 
Date/Time
EST
Temp
°C
App
Temp
°C
Dew
Point
°C
Rel
Hum
%
Delta-T
°C
Wind Press
QNH
hPa
Press
MSL
hPa
Rain since
9am
mm
Dir  Spd
km/h
Gust
km/h
Spd
kts
Gust
kts
21/11:30pm 11.4 4.9 8.8 84 1.3 W 33 39 18 21 1024.6 1024.6 0.2
21/11:04pm 10.9 4.5 10.6 98 0.2 W 35 44 19 24 1024.7 1024.7 0.2
21/11:00pm 10.9 4.1 10.6 98 0.2 W 37 44 20 24 1024.8 1024.8 0.2
21/10:30pm 11.4 5.1 10.9 97 0.3 WSW 35 41 19 22 1024.9 1024.9 0.2
21/10:22pm 11.5 5.2 10.9 96 0.3 W 35 41 19 22 1024.9 1024.9 0.2
21/10:16pm 11.3 5.3 10.8 97 0.3 W 33 41 18 22 1024.9 1024.9 0.2
21/10:00pm 11.0 5.2 10.7 98 0.2 W 32 46 17 25 1025.0 1025.0 0.2
21/09:32pm 11.4 5.6 10.9 97 0.3 W 32 46 17 25 1024.8 1024.8 0.2
21/09:30pm 11.3 5.9 10.8 97 0.3 W 30 37 16 20 1024.8 1024.8 0.2
21/09:23pm 11.2 5.4 10.9 98 0.2 W 32 44 17 24 1024.8 1024.8 0.2
21/09:14pm 11.3 5.4 11.0 98 0.2 WNW 33 48 18 26 1025.0 1025.0 0.2
21/09:00pm 11.5 6.6 11.2 98 0.2 WNW 28 35 15 19 1024.9 1024.9 0.2
21/08:49pm 11.4 5.6 10.9 97 0.3 W 32 41 17 22 1024.8 1024.8 0.2
21/08:36pm 11.4 5.5 10.6 95 0.4 WNW 32 43 17 23 1024.7 1024.7 0.2
21/08:32pm 11.5 5.6 10.4 93 0.6 W 32 41 17 22 1024.6 1024.6 0.2
21/08:30pm 11.7 5.8 10.6 93 0.6 W 32 41 17 22 1024.6 1024.6 0.2
21/08:14pm 11.6 5.8 10.7 94 0.5 W 32 41 17 22 1024.6 1024.6 0.2
21/08:01pm 11.9 4.7 10.6 92 0.7 W 39 48 21 26 1024.5 1024.5 0.2
21/08:00pm 12.0 5.2 10.7 92 0.7 W 37 50 20 27 1024.5 1024.5 0.2
21/07:56pm 11.9 5.1 10.5 91 0.7 W 37 50 20 27 1024.5 1024.5 0.2
21/07:42pm 11.7 6.8 11.2 97 0.3 W 28 39 15 21 1024.4 1024.4 0.2
21/07:39pm 11.7 6.8 11.2 97 0.3 W 28 33 15 18 1024.4 1024.4 0.2
21/07:30pm 11.6 5.9 11.1 97 0.3 W 32 37 17 20 1024.3 1024.3 0.2
21/07:00pm 12.2 5.8 10.8 91 0.7 W 35 52 19 28 1023.9 1023.9 0.2
21/06:56pm 12.1 6.1 10.8 92 0.7 W 33 43 18 23 1023.9 1023.9 0.2
21/06:51pm 12.1 5.8 11.0 93 0.6 W 35 43 19 23 1023.9 1023.9 0.2
21/06:30pm 12.1 4.9 10.7 91 0.7 W 39 50 21 27 1023.6 1023.6 0.2
21/06:09pm 12.4 6.5 10.5 88 1.0 W 32 54 17 29 1023.3 1023.3 0.2
21/06:00pm 12.4 6.5 10.6 89 0.9 W 32 46 17 25 1023.2 1023.2 0.2
21/05:54pm 12.5 6.7 10.7 89 0.9 W 32 46 17 25 1023.1 1023.1 0.2
21/05:45pm 12.5 6.7 10.9 90 0.8 WNW 32 39 17 21 1023.0 1023.0 0.2
21/05:30pm 12.5 6.6 10.6 88 1.0 WNW 32 37 17 20 1023.0 1023.0 0.2
21/05:01pm 13.1 7.1 10.1 82 1.5 W 32 41 17 22 1022.9 1022.9 0.2
21/05:00pm 13.1 7.1 10.1 82 1.5 W 32 41 17 22 1022.9 1022.9 0.2
21/04:32pm 13.3 7.7 10.1 81 1.7 W 30 39 16 21 1022.7 1022.7 0.2
21/04:30pm 13.4 7.8 10.2 81 1.7 W 30 39 16 21 1022.7 1022.7 0.2
21/04:00pm 13.3 7.1 9.9 80 1.7 WNW 33 39 18 21 1022.8 1022.8 0.2
21/03:52pm 13.5 7.4 9.9 79 1.9 W 32 39 17 21 1022.8 1022.8 0.2
21/03:30pm 14.1 7.9 10.1 77 2.1 W 33 46 18 25 1022.5 1022.5 0.2
21/03:08pm 14.5 8.4 10.5 77 2.1 WNW 33 41 18 22 1022.6 1022.6 0.2
21/03:00pm 14.1 7.9 10.1 77 2.1 W 33 41 18 22 1022.6 1022.6 0.2
21/02:34pm 14.1 7.6 10.3 78 2.0 W 35 39 19 21 1022.6 1022.6 0.2
21/02:30pm 14.8 8.7 10.6 76 2.2 W 33 41 18 22 1022.6 1022.6 0.2
21/02:01pm 15.1 9.2 10.3 73 2.5 W 32 43 17 23 1022.7 1022.7 0.0
21/02:00pm 15.0 9.0 10.2 73 2.5 W 32 43 17 23 1022.7 1022.7 0.0
21/01:45pm 14.9 8.8 10.3 74 2.4 W 33 43 18 23 1022.7 1022.7 0.0
21/01:30pm 14.1 7.6 10.3 78 2.0 W 35 44 19 24 1022.8 1022.8 0.0
21/01:00pm 14.1 7.1 9.9 76 2.2 WNW 37 50 20 27 1022.9 1022.9 0.0
21/12:30pm 14.1 6.9 10.5 79 1.9 WNW 39 46 21 25 1023.0 1023.0 0.0
21/12:00pm 14.3 8.5 10.7 79 1.9 WNW 32 39 17 21 1023.2 1023.2 0.0
21/11:30am 14.1 8.6 10.7 80 1.8 W 30 37 16 20 1023.3 1023.3 0.0
21/11:00am 14.4 8.7 11.2 81 1.7 W 32 37 17 20 1023.5 1023.5 0.0
21/10:30am 13.3 8.8 12.7 96 0.3 W 28 33 15 18 1023.5 1023.5 0.0
21/10:27am 13.2 8.7 12.7 97 0.3 W 28 33 15 18 1023.6 1023.6 0.0
21/10:22am 13.0 8.8 12.5 97 0.3 W 26 35 14 19 1023.6 1023.6 0.0
21/10:08am 12.2 5.5 10.9 92 0.7 W 37 48 20 26 1023.7 1023.7 0.0
21/10:06am 12.3 5.8 10.5 89 0.9 W 35 48 19 26 1023.7 1023.7 0.0
21/10:00am 13.9 8.1 10.7 81 1.7 W 32 44 17 24 1023.5 1023.5 0.0
21/09:30am 13.6 8.5 10.6 82 1.6 W 28 33 15 18 1023.4 1023.4 0.0
21/09:00am 13.5 8.8 11.9 90 0.9 W 28 35 15 19 1023.5 1023.5 0.4
21/08:30am 12.8 8.1 11.9 94 0.5 WNW 28 33 15 18 1023.5 1023.5 0.4
21/08:00am 12.3 9.1 12.0 98 0.2 WNW 20 28 11 15 1023.5 1023.5 0.4
21/07:30am 11.8 8.5 11.6 99 0.1 W 20 28 11 15 1023.1 1023.1 0.4
21/07:28am 11.6 8.2 11.4 99 0.1 W 20 28 11 15 1023.1 1023.1 0.4
21/07:08am 11.7 7.6 11.5 99 0.1 W 24 35 13 19 1023.0 1023.0 0.2
21/07:00am 11.7 7.6 11.5 99 0.1 WNW 24 30 13 16 1023.0 1023.0 0.0
21/06:30am 11.1 6.8 10.6 97 0.3 WNW 24 32 13 17 1022.6 1022.6 0.0
21/06:14am 10.9 6.5 10.4 97 0.3 WNW 24 28 13 15 1022.4 1022.4 0.0
21/06:12am 10.9 6.5 10.4 97 0.3 WNW 24 30 13 16 1022.4 1022.4 0.0
21/06:00am 10.8 5.6 10.3 97 0.3 WNW 28 37 15 20 1022.3 1022.3 0.0
21/05:48am 11.4 6.3 10.6 95 0.4 W 28 37 15 20 1022.1 1022.1 0.0
21/05:47am 11.5 6.8 10.6 94 0.5 W 26 37 14 20 1022.1 1022.1 0.0
21/05:30am 11.4 8.1 10.9 97 0.3 WNW 19 26 10 14 1021.9 1021.9 0.0
21/05:00am 11.3 7.7 10.7 96 0.3 WNW 20 28 11 15 1021.8 1021.8 0.0
21/04:30am 11.0 7.3 10.1 94 0.5 WNW 20 26 11 14 1021.6 1021.6 0.0
21/04:00am 11.3 7.5 9.9 91 0.7 W 20 30 11 16 1021.5 1021.5 0.0
21/03:48am 11.5 7.0 9.9 90 0.8 W 24 30 13 16 1021.3 1021.3 0.0
21/03:30am 11.6 6.3 9.9 89 0.9 W 28 32 15 17 1021.3 1021.3 0.0
21/03:12am 11.6 6.0 10.0 90 0.8 W 30 35 16 19 1021.2 1021.2 0.0
21/03:00am 11.7 5.6 9.8 88 1.0 W 32 37 17 20 1021.2 1021.2 0.0
21/02:30am 11.8 5.8 10.0 89 0.9 W 32 39 17 21 1021.3 1021.3 0.0
21/02:00am 11.6 5.9 9.7 88 1.0 W 30 37 16 20 1021.3 1021.3 0.0
21/01:35am 11.6 6.3 9.7 88 1.0 W 28 35 15 19 1021.4 1021.4 0.0
21/01:30am 11.8 5.7 9.9 88 1.0 W 32 41 17 22 1021.5 1021.5 0.0
21/01:00am 11.5 5.5 10.1 91 0.7 W 32 37 17 20 1021.4 1021.4 0.0
21/12:50am 11.8 6.6 10.2 90 0.8 W 28 37 15 20 1021.4 1021.4 0.0
21/12:30am 11.7 7.5 9.9 89 0.9 W 22 28 12 15 1021.4 1021.4 0.0
21/12:00am 11.3 6.6 9.4 88 0.9 W 24 33 13 18 1021.2 1021.2 0.0
 
Date/Time
EST
Temp
°C
App
Temp
°C
Dew
Point
°C
Rel
Hum
%
Delta-T
°C
Wind Press
QNH
hPa
Press
MSL
hPa
Rain since
9am
mm
Dir  Spd
km/h
Gust
km/h
Spd
kts
Gust
kts
20/11:30pm 11.5 5.0 9.1 85 1.2 W 33 41 18 22 1021.1 1021.1 0.0
20/11:00pm 11.6 5.4 9.2 85 1.2 W 32 39 17 21 1021.1 1021.1 0.0
20/10:30pm 11.6 6.1 9.2 85 1.2 W 28 35 15 19 1021.1 1021.1 0.0
20/10:00pm 11.5 5.6 9.1 85 1.2 W 30 37 16 20 1020.8 1020.8 0.0
20/09:30pm 11.7 5.8 9.1 84 1.3 W 30 37 16 20 1020.8 1020.8 0.0
20/09:00pm 11.7 5.9 9.3 85 1.2 W 30 35 16 19 1020.4 1020.4 0.0
20/08:30pm 11.8 6.0 9.5 86 1.2 WNW 30 37 16 20 1020.2 1020.2 0.0
20/08:00pm 11.4 5.9 9.1 86 1.1 W 28 37 15 20 1020.1 1020.1 0.0
20/07:30pm 11.5 6.2 9.8 89 0.9 W 28 37 15 20 1019.8 1019.8 0.0
20/07:00pm 11.6 6.3 9.7 88 1.0 W 28 35 15 19 1019.5 1019.5 0.0
20/06:30pm 11.8 6.4 9.4 85 1.2 W 28 37 15 20 1019.2 1019.2 0.0
20/06:00pm 12.1 5.8 9.1 82 1.5 W 32 41 17 22 1018.9 1018.9 0.0
20/05:30pm 12.3 6.0 8.8 79 1.7 WNW 32 41 17 22 1018.6 1018.6 0.0
20/05:00pm 12.6 6.3 9.1 79 1.8 WNW 32 39 17 21 1018.5 1018.5 0.0
20/04:30pm 12.9 5.9 8.4 74 2.2 W 35 43 19 23 1018.2 1018.2 0.0
20/04:00pm 13.3 6.3 8.6 73 2.3 WNW 35 44 19 24 1018.1 1018.1 0.0
20/03:30pm 13.6 6.3 8.7 72 2.5 W 37 48 20 26 1017.7 1017.8 0.0
20/03:00pm 13.8 7.5 8.8 72 2.5 W 32 41 17 22 1017.8 1017.9 0.0
20/02:30pm 13.5 5.5 7.5 67 2.9 W 39 48 21 26 1018.1 1018.1 0.0
20/02:00pm 13.9 5.0 6.7 62 3.5 W 43 50 23 27 1018.0 1018.0 0.0
20/01:30pm 13.7 6.9 7.0 64 3.3 W 32 39 17 21 1017.6 1017.7 0.0
20/01:00pm 13.7 7.0 7.2 65 3.2 W 32 43 17 23 1017.5 1017.6 0.0
20/12:30pm 13.5 6.0 6.1 61 3.5 W 35 41 19 22 1018.1 1018.1 0.0
20/12:00pm 13.6 6.2 6.7 63 3.3 W 35 41 19 22 1018.2 1018.2 0.0
20/11:30am 13.3 6.2 6.6 64 3.2 WSW 33 39 18 21 1018.3 1018.3 0.0
20/11:00am 12.9 6.1 6.7 66 3.0 W 32 37 17 20 1018.0 1018.0 0.0
20/10:30am 12.4 5.9 6.7 68 2.7 W 30 39 16 21 1017.7 1017.8 0.0
20/10:00am 11.7 4.6 5.6 66 2.8 W 32 41 17 22 1017.5 1017.6 0.0
20/09:30am 12.3 6.4 5.7 64 3.1 W 26 33 14 18 1017.0 1017.1 0.0
20/09:00am 11.3 6.2 6.0 70 2.5 W 22 26 12 14 1016.9 1017.0 0.2
20/08:30am 11.2 6.6 6.3 72 2.3 W 20 33 11 18 1016.9 1017.0 0.2
20/08:00am 10.8 5.3 5.8 71 2.3 WSW 24 30 13 16 1016.9 1017.0 0.2
20/07:30am 10.9 4.6 5.7 70 2.4 WSW 28 33 15 18 1016.6 1016.7 0.2
20/07:00am 10.4 3.6 5.2 70 2.4 WSW 30 33 16 18 1016.4 1016.5 0.2
20/06:30am 9.9 3.1 4.9 71 2.2 WSW 30 35 16 19 1016.2 1016.3 0.2
20/06:00am 9.8 2.9 4.8 71 2.2 WSW 30 37 16 20 1016.0 1016.1 0.2
20/05:30am 9.7 2.4 4.7 71 2.2 WSW 32 37 17 20 1015.6 1015.7 0.2
20/05:00am 9.7 2.4 4.7 71 2.2 WSW 32 35 17 19 1015.3 1015.4 0.2
20/04:30am 9.5 3.0 4.9 73 2.1 WSW 28 35 15 19 1015.0 1015.1 0.2
20/04:00am 9.2 2.6 4.4 72 2.1 WSW 28 33 15 18 1014.8 1014.9 0.2
20/03:30am 9.3 2.3 4.1 70 2.3 WSW 30 37 16 20 1014.8 1014.9 0.2
20/03:00am 9.4 2.4 4.0 69 2.4 WSW 30 37 16 20 1014.8 1014.9 0.2
20/02:30am 9.3 2.3 4.1 70 2.3 WSW 30 35 16 19 1014.7 1014.8 0.2
20/02:00am 9.3 2.7 4.3 71 2.2 WSW 28 37 15 20 1014.9 1015.0 0.2
20/01:30am 9.8 2.5 4.4 69 2.4 WSW 32 39 17 21 1015.1 1015.2 0.2
20/01:00am 9.7 2.1 4.1 68 2.5 WSW 33 41 18 22 1015.0 1015.1 0.2
20/12:30am 9.9 2.3 3.9 66 2.6 WSW 33 43 18 23 1014.9 1015.0 0.2
20/12:00am 10.1 2.8 4.5 68 2.5 WSW 32 43 17 23 1014.7 1014.8 0.2
 
Date/Time
EST
Temp
°C
App
Temp
°C
Dew
Point
°C
Rel
Hum
%
Delta-T
°C
Wind Press
QNH
hPa
Press
MSL
hPa
Rain since
9am
mm
Dir  Spd
km/h
Gust
km/h
Spd
kts
Gust
kts
19/11:30pm 10.3 2.8 4.7 68 2.5 WSW 33 46 18 25 1014.4 1014.5 0.2
19/11:00pm 10.5 2.5 5.5 71 2.3 WSW 37 46 20 25 1014.2 1014.3 0.2
19/10:30pm 10.5 2.5 5.9 73 2.1 WSW 37 48 20 26 1014.0 1014.1 0.2
19/10:00pm 10.7 2.4 6.3 74 2.1 WSW 39 48 21 26 1013.9 1014.0 0.2
19/09:30pm 11.0 2.3 6.0 71 2.3 WSW 41 54 22 29 1013.6 1013.6 0.2
19/09:00pm 11.2 3.0 6.7 74 2.1 WSW 39 52 21 28 1013.4 1013.4 0.2
19/08:30pm 11.2 3.0 6.7 74 2.1 W 39 48 21 26 1013.0 1013.0 0.2
19/08:00pm 11.0 2.7 6.0 71 2.3 W 39 46 21 25 1012.6 1012.6 0.2
19/07:30pm 11.0 3.5 6.2 72 2.2 W 35 48 19 26 1012.4 1012.4 0.2
19/07:00pm 11.2 2.5 5.9 70 2.5 W 41 50 22 27 1011.8 1011.8 0.2
19/06:30pm 11.0 2.4 6.4 73 2.2 W 41 52 22 28 1011.5 1011.5 0.2
19/06:00pm 11.1 2.0 6.0 71 2.4 W 43 50 23 27 1010.9 1010.9 0.2

Other Formats:

Comma delimited format used in spreadsheet applications
http://www.bom.gov.au/fwo/IDT60801/IDT60801.94980.axf

JavaScript Object Notation format (JSON) in row-major order
http://www.bom.gov.au/fwo/IDT60801/IDT60801.94980.json